createdAt,value
2022-10-08T00:01:07.642Z,14.70
2022-10-08T00:03:38.970Z,14.80
2022-10-08T00:06:16.499Z,13.10
2022-10-08T00:08:47.763Z,14.52
2022-10-08T00:11:17.899Z,13.82
2022-10-08T00:13:48.099Z,13.10
2022-10-08T00:16:30.261Z,13.90
2022-10-08T00:19:03.926Z,13.95
2022-10-08T00:21:38.699Z,12.80
2022-10-08T00:24:07.525Z,13.88
2022-10-08T00:26:39.774Z,13.02
2022-10-08T00:29:07.994Z,13.32
2022-10-08T00:31:38.452Z,14.18
2022-10-08T00:34:10.240Z,12.93
2022-10-08T00:36:38.855Z,14.02
2022-10-08T00:39:07.302Z,14.70
2022-10-08T00:41:38.684Z,15.20
2022-10-08T00:44:43.152Z,14.65
2022-10-08T00:47:46.341Z,14.52
2022-10-08T00:50:24.059Z,14.52
2022-10-08T00:53:06.025Z,14.90
2022-10-08T00:55:33.875Z,14.38
2022-10-08T00:58:09.862Z,14.55
2022-10-08T01:00:36.601Z,14.30
2022-10-08T01:03:03.895Z,14.85
2022-10-08T01:05:33.639Z,14.15
2022-10-08T01:08:16.094Z,15.13
2022-10-08T01:11:01.976Z,14.57
2022-10-08T01:13:49.246Z,16.40
2022-10-08T01:16:51.473Z,13.65
2022-10-08T01:19:45.636Z,12.70
2022-10-08T01:22:35.973Z,12.13
2022-10-08T01:25:34.551Z,13.90
2022-10-08T01:28:12.570Z,13.52
2022-10-08T01:30:48.740Z,13.25
2022-10-08T01:33:22.983Z,13.32
2022-10-08T01:35:54.544Z,12.13
2022-10-08T01:38:23.912Z,13.15
2022-10-08T01:40:53.048Z,14.98
2022-10-08T01:43:23.753Z,12.68
2022-10-08T01:45:57.218Z,13.40
2022-10-08T01:48:29.659Z,15.35
2022-10-08T01:51:04.953Z,15.23
2022-10-08T01:53:38.028Z,13.73
2022-10-08T01:56:07.803Z,14.02
2022-10-08T01:59:07.714Z,13.27
2022-10-08T02:02:13.206Z,13.32
2022-10-08T02:07:16.468Z,13.77
2022-10-08T02:09:45.932Z,11.63
2022-10-08T02:12:14.345Z,12.68
2022-10-08T02:14:46.565Z,12.45
2022-10-08T02:17:15.971Z,13.50
2022-10-08T02:20:05.601Z,11.45
2022-10-08T02:22:45.095Z,13.15
2022-10-08T02:25:21.920Z,13.98
2022-10-08T02:28:06.732Z,15.45
2022-10-08T02:33:28.681Z,15.20
2022-10-08T02:35:59.843Z,13.20
2022-10-08T02:38:40.699Z,12.57
2022-10-08T02:41:10.643Z,11.45
2022-10-08T02:43:42.413Z,13.30
2022-10-08T02:46:15.781Z,12.10
2022-10-08T02:48:46.850Z,12.95
2022-10-08T02:51:18.586Z,14.15
2022-10-08T02:53:47.696Z,12.52
2022-10-08T02:56:32.993Z,12.98
2022-10-08T02:59:00.205Z,13.82
2022-10-08T03:01:45.638Z,13.15
2022-10-08T03:04:23.945Z,14.70
2022-10-08T03:06:52.968Z,13.55
2022-10-08T03:09:21.994Z,13.00
2022-10-08T03:11:49.579Z,13.85
2022-10-08T03:14:19.603Z,14.10
2022-10-08T03:16:48.039Z,13.65
2022-10-08T03:19:17.621Z,13.43
2022-10-08T03:21:47.194Z,14.25
2022-10-08T03:24:15.025Z,13.50
2022-10-08T03:26:42.347Z,13.90
2022-10-08T03:29:10.069Z,14.05
2022-10-08T03:31:43.892Z,14.85
2022-10-08T03:34:10.624Z,15.35
2022-10-08T03:36:37.288Z,14.77
2022-10-08T03:39:04.307Z,15.18
2022-10-08T03:41:31.586Z,15.93
2022-10-08T03:43:59.537Z,15.13
2022-10-08T03:46:26.186Z,16.65
2022-10-08T03:48:52.873Z,15.82
2022-10-08T03:51:23.740Z,15.15
2022-10-08T03:53:50.506Z,15.95
2022-10-08T03:56:20.640Z,15.95
2022-10-08T03:58:57.891Z,16.02
2022-10-08T04:01:25.713Z,15.75
2022-10-08T04:03:52.718Z,18.60
2022-10-08T04:06:19.677Z,17.52
2022-10-08T04:08:46.612Z,17.33
2022-10-08T04:11:16.366Z,16.40
2022-10-08T04:13:44.066Z,15.48
2022-10-08T04:16:17.327Z,16.17
2022-10-08T04:18:44.843Z,16.45
2022-10-08T04:21:14.201Z,14.57
2022-10-08T04:23:42.354Z,15.05
2022-10-08T04:26:10.653Z,15.50
2022-10-08T04:28:39.285Z,16.45
2022-10-08T04:31:17.014Z,14.82
2022-10-08T04:33:45.030Z,14.80
2022-10-08T04:36:23.386Z,14.48
2022-10-08T04:38:50.824Z,14.30
2022-10-08T04:41:20.767Z,15.15
2022-10-08T04:43:47.689Z,15.55
2022-10-08T04:46:17.324Z,15.38
2022-10-08T04:48:49.312Z,15.88
2022-10-08T04:51:17.244Z,14.45
2022-10-08T04:53:44.443Z,16.40
2022-10-08T04:56:25.977Z,18.25
2022-10-08T04:58:55.196Z,19.13
2022-10-08T05:01:23.076Z,21.27
2022-10-08T05:03:51.799Z,20.40
2022-10-08T05:06:22.032Z,21.30
2022-10-08T05:08:49.303Z,18.98
2022-10-08T05:11:17.004Z,21.17
2022-10-08T05:13:48.672Z,21.27
2022-10-08T05:16:17.222Z,21.23
2022-10-08T05:18:45.023Z,21.25
2022-10-08T05:21:14.558Z,21.05
2022-10-08T05:23:45.001Z,23.15
2022-10-08T05:26:14.507Z,21.13
2022-10-08T05:28:41.595Z,22.13
2022-10-08T05:31:08.487Z,21.25
2022-10-08T05:33:36.335Z,20.58
2022-10-08T05:36:05.323Z,22.27
2022-10-08T05:38:35.194Z,22.55
2022-10-08T05:41:14.453Z,20.50
2022-10-08T05:43:41.497Z,20.38
2022-10-08T05:46:08.300Z,21.73
2022-10-08T05:48:35.672Z,19.98
2022-10-08T05:51:11.117Z,18.85
2022-10-08T05:53:39.972Z,24.00
2022-10-08T05:56:09.148Z,24.40
2022-10-08T05:58:39.393Z,21.55
2022-10-08T06:01:12.871Z,19.85
2022-10-08T06:03:39.695Z,19.73
2022-10-08T06:06:09.400Z,19.80
2022-10-08T06:08:37.125Z,20.13
2022-10-08T06:11:05.838Z,18.17
2022-10-08T06:13:32.732Z,17.75
2022-10-08T06:16:01.297Z,18.45
2022-10-08T06:18:31.313Z,17.75
2022-10-08T06:21:01.497Z,17.67
2022-10-08T06:23:28.146Z,18.42
2022-10-08T06:25:54.987Z,17.13
2022-10-08T06:28:21.710Z,17.45
2022-10-08T06:30:48.388Z,17.70
2022-10-08T06:33:16.880Z,17.65
2022-10-08T06:35:43.671Z,17.98
2022-10-08T06:38:10.337Z,17.25
2022-10-08T06:40:39.352Z,17.70
2022-10-08T06:43:07.835Z,19.25
2022-10-08T06:45:39.351Z,19.70
2022-10-08T06:48:06.242Z,19.05
2022-10-08T06:50:34.179Z,20.02
2022-10-08T06:53:01.642Z,20.38
2022-10-08T06:55:28.303Z,20.90
2022-10-08T06:57:55.036Z,19.25
2022-10-08T07:00:25.923Z,20.15
2022-10-08T07:02:53.123Z,18.83
2022-10-08T07:05:20.290Z,21.25
2022-10-08T07:07:46.949Z,23.50
2022-10-08T07:10:16.602Z,23.70
2022-10-08T07:12:45.642Z,24.92
2022-10-08T07:15:12.691Z,22.63
2022-10-08T07:17:39.561Z,23.75
2022-10-08T07:20:06.995Z,22.55
2022-10-08T07:22:33.691Z,21.38
2022-10-08T07:25:01.529Z,20.75
2022-10-08T07:27:28.309Z,22.30
2022-10-08T07:29:54.995Z,21.45
2022-10-08T07:32:21.754Z,20.60
2022-10-08T07:34:48.432Z,23.25
2022-10-08T07:37:15.107Z,21.23
2022-10-08T07:39:41.893Z,21.27
2022-10-08T07:42:08.614Z,21.73
2022-10-08T07:44:35.292Z,24.73
2022-10-08T07:47:02.001Z,21.25
2022-10-08T07:49:28.768Z,20.98
2022-10-08T07:51:55.487Z,21.70
2022-10-08T07:54:22.653Z,20.27
2022-10-08T07:56:50.036Z,20.73
2022-10-08T07:59:16.781Z,20.85
2022-10-08T08:01:44.009Z,20.73
2022-10-08T08:04:11.605Z,19.70
2022-10-08T08:06:41.967Z,21.40
2022-10-08T08:09:09.697Z,21.60
2022-10-08T08:11:37.262Z,21.63
2022-10-08T08:14:04.090Z,21.48
2022-10-08T08:16:30.909Z,23.10
2022-10-08T08:18:59.965Z,22.38
2022-10-08T08:21:30.268Z,22.30
2022-10-08T08:23:58.794Z,23.15
2022-10-08T08:26:29.021Z,22.13
2022-10-08T08:28:58.658Z,22.58
2022-10-08T08:31:28.805Z,23.50
2022-10-08T08:33:58.665Z,22.92
2022-10-08T08:36:27.739Z,21.85
2022-10-08T08:38:54.668Z,24.40
2022-10-08T08:42:00.233Z,20.30
2022-10-08T08:47:39.760Z,19.10
2022-10-08T08:50:08.603Z,21.13
2022-10-08T08:52:40.372Z,19.30
2022-10-08T08:55:15.683Z,20.10
2022-10-08T08:58:00.180Z,20.13
2022-10-08T09:00:36.083Z,18.23
2022-10-08T09:03:10.980Z,17.73
2022-10-08T09:05:42.941Z,18.35
2022-10-08T09:08:29.655Z,17.42
2022-10-08T09:11:05.503Z,18.55
2022-10-08T09:13:56.565Z,17.88
2022-10-08T09:16:25.325Z,17.05
2022-10-08T09:18:52.282Z,17.88
2022-10-08T09:21:20.468Z,20.30
2022-10-08T09:23:47.941Z,24.98
2022-10-08T09:26:19.377Z,19.27
2022-10-08T09:28:47.686Z,19.48
2022-10-08T09:31:26.830Z,18.20
2022-10-08T09:34:04.692Z,19.77
2022-10-08T09:36:38.263Z,19.38
2022-10-08T09:39:15.310Z,20.40
2022-10-08T09:41:44.134Z,18.48
2022-10-08T09:44:20.285Z,20.40
2022-10-08T09:46:48.051Z,19.50
2022-10-08T09:49:35.089Z,21.63
2022-10-08T09:52:25.962Z,20.58
2022-10-08T09:55:02.738Z,18.73
2022-10-08T09:57:30.656Z,23.25
2022-10-08T10:00:00.005Z,22.65
2022-10-08T10:02:31.381Z,22.73
2022-10-08T10:05:00.497Z,20.35
2022-10-08T10:07:44.876Z,21.08
2022-10-08T10:10:28.759Z,21.30
2022-10-08T10:13:10.180Z,21.48
2022-10-08T10:16:01.868Z,21.00
2022-10-08T10:18:43.049Z,18.50
2022-10-08T10:21:17.708Z,16.67
2022-10-08T10:23:54.761Z,14.45
2022-10-08T10:26:29.434Z,15.77
2022-10-08T10:28:59.384Z,13.25
2022-10-08T10:31:54.729Z,12.07
2022-10-08T10:34:27.609Z,11.85
2022-10-08T10:37:00.951Z,11.75
2022-10-08T10:39:36.630Z,9.60
2022-10-08T10:42:21.003Z,11.32
2022-10-08T10:44:56.565Z,9.75
2022-10-08T10:47:30.927Z,8.30
2022-10-08T10:50:01.157Z,9.23
2022-10-08T10:53:02.225Z,8.73
2022-10-08T10:55:38.991Z,9.45
2022-10-08T10:58:30.994Z,11.38
2022-10-08T11:01:03.756Z,9.70
2022-10-08T11:03:49.880Z,8.43
2022-10-08T11:06:31.724Z,10.38
2022-10-08T11:09:39.742Z,9.07
2022-10-08T11:12:24.852Z,8.90
2022-10-08T11:15:15.591Z,8.00
2022-10-08T11:17:58.930Z,8.65
2022-10-08T11:20:37.940Z,8.50
2022-10-08T11:23:17.106Z,11.35
2022-10-08T11:26:20.782Z,11.00
2022-10-08T11:29:09.739Z,11.70
2022-10-08T11:31:46.553Z,8.73
2022-10-08T11:34:33.952Z,10.98
2022-10-08T11:37:15.665Z,10.65
2022-10-08T11:40:05.538Z,10.50
2022-10-08T11:42:45.033Z,11.10
2022-10-08T11:45:28.799Z,10.68
2022-10-08T11:47:57.977Z,9.07
2022-10-08T11:50:37.360Z,11.07
2022-10-08T11:53:09.714Z,11.40
2022-10-08T11:55:37.677Z,12.00
2022-10-08T11:58:15.601Z,13.48
2022-10-08T12:00:44.916Z,11.57
2022-10-08T12:03:23.256Z,12.60
2022-10-08T12:05:53.241Z,12.13
2022-10-08T12:08:50.529Z,12.15
2022-10-08T12:11:32.258Z,14.15
2022-10-08T12:14:19.901Z,12.27
2022-10-08T12:16:55.546Z,11.57
2022-10-08T12:19:34.933Z,10.88
2022-10-08T12:22:25.404Z,10.20
2022-10-08T12:24:55.083Z,15.18
2022-10-08T12:27:26.913Z,13.18
2022-10-08T12:29:55.791Z,11.75
2022-10-08T12:32:31.063Z,15.00
2022-10-08T12:34:59.317Z,12.77
2022-10-08T12:37:43.374Z,11.55
2022-10-08T12:40:50.571Z,10.30
2022-10-08T12:43:51.132Z,9.00
2022-10-08T12:46:23.732Z,10.65
2022-10-08T12:49:15.819Z,10.35
2022-10-08T12:52:14.312Z,13.40
2022-10-08T12:54:58.696Z,14.07
2022-10-08T12:57:33.808Z,14.10
2022-10-08T13:00:24.831Z,12.10
2022-10-08T13:03:14.974Z,13.77
2022-10-08T13:05:46.054Z,12.98
2022-10-08T13:08:35.968Z,12.48
2022-10-08T13:11:05.970Z,14.35
2022-10-08T13:13:41.053Z,11.07
2022-10-08T13:16:11.134Z,11.40
2022-10-08T13:18:41.736Z,10.10
2022-10-08T13:21:34.765Z,11.57
2022-10-08T13:24:11.405Z,10.10
2022-10-08T13:26:50.046Z,9.68
2022-10-08T13:29:22.954Z,8.05
2022-10-08T13:32:06.905Z,8.82
2022-10-08T13:34:39.562Z,7.82
2022-10-08T13:37:29.628Z,6.90
2022-10-08T13:40:12.950Z,7.55
2022-10-08T13:42:41.681Z,6.72
2022-10-08T13:45:19.623Z,6.93
2022-10-08T13:47:46.714Z,5.72
2022-10-08T13:50:14.116Z,5.90
2022-10-08T13:52:47.295Z,6.15
2022-10-08T13:55:30.401Z,5.43
2022-10-08T13:58:02.625Z,5.40
2022-10-08T14:00:32.006Z,5.15
2022-10-08T14:02:59.682Z,4.60
2022-10-08T14:05:28.747Z,4.90
2022-10-08T14:08:00.528Z,4.40
2022-10-08T14:10:27.444Z,5.22
2022-10-08T14:12:54.235Z,4.70
2022-10-08T14:15:21.291Z,4.75
2022-10-08T14:17:50.576Z,5.25
2022-10-08T14:20:17.577Z,5.40
2022-10-08T14:22:44.407Z,4.85
2022-10-08T14:25:15.976Z,5.00
2022-10-08T14:27:43.024Z,4.40
2022-10-08T14:30:11.763Z,5.30
2022-10-08T14:32:38.504Z,4.25
2022-10-08T14:35:06.840Z,4.63
2022-10-08T14:37:34.675Z,3.72
2022-10-08T14:40:01.793Z,3.88
2022-10-08T14:42:28.454Z,3.22
2022-10-08T14:44:55.156Z,3.33
2022-10-08T14:47:22.318Z,2.92
2022-10-08T14:49:49.031Z,3.40
2022-10-08T14:52:15.777Z,3.28
2022-10-08T14:54:42.733Z,2.97
2022-10-08T14:57:09.476Z,3.00
2022-10-08T14:59:40.084Z,3.45
2022-10-08T15:02:09.522Z,3.20
2022-10-08T15:04:36.252Z,3.08
2022-10-08T15:07:03.211Z,3.00
2022-10-08T15:09:31.373Z,3.10
2022-10-08T15:11:58.398Z,3.03
2022-10-08T15:14:25.304Z,2.72
2022-10-08T15:16:52.034Z,3.00
2022-10-08T15:19:23.461Z,2.80
2022-10-08T15:21:50.885Z,2.72
2022-10-08T15:24:17.731Z,3.38
2022-10-08T15:26:44.386Z,2.80
2022-10-08T15:29:11.809Z,2.65
2022-10-08T15:31:38.770Z,2.80
2022-10-08T15:34:05.829Z,2.60
2022-10-08T15:36:37.835Z,2.85
2022-10-08T15:39:12.058Z,2.90
2022-10-08T15:41:42.135Z,2.78
2022-10-08T15:44:25.467Z,2.70
2022-10-08T15:47:05.931Z,2.30
2022-10-08T15:49:41.905Z,2.50
2022-10-08T15:52:11.769Z,2.50
2022-10-08T15:54:39.385Z,2.50
2022-10-08T15:57:07.467Z,3.50
2022-10-08T15:59:34.224Z,3.25
2022-10-08T16:02:01.239Z,2.80
2022-10-08T16:04:28.312Z,2.72
2022-10-08T16:06:55.651Z,2.55
2022-10-08T16:09:22.897Z,2.30
2022-10-08T16:11:50.729Z,2.15
2022-10-08T16:14:18.631Z,2.45
2022-10-08T16:16:46.025Z,1.95
2022-10-08T16:19:17.934Z,2.42
2022-10-08T16:21:46.162Z,2.63
2022-10-08T16:24:13.618Z,2.58
2022-10-08T16:26:41.928Z,2.40
2022-10-08T16:29:12.855Z,2.20
2022-10-08T16:31:41.614Z,2.20
2022-10-08T16:34:13.022Z,2.35
2022-10-08T16:36:39.807Z,2.30
2022-10-08T16:39:08.215Z,2.40
2022-10-08T16:41:36.990Z,2.05
2022-10-08T16:44:11.805Z,2.50
2022-10-08T16:46:42.306Z,2.10
2022-10-08T16:49:35.078Z,2.10
2022-10-08T16:52:08.099Z,1.88
2022-10-08T16:54:34.886Z,1.83
2022-10-08T16:57:02.123Z,1.98
2022-10-08T16:59:30.066Z,2.17
2022-10-08T17:01:58.824Z,1.80
2022-10-08T17:04:27.678Z,1.98
2022-10-08T17:06:54.583Z,2.22
2022-10-08T17:09:21.245Z,2.38
2022-10-08T17:11:48.481Z,2.30
2022-10-08T17:14:15.173Z,2.20
2022-10-08T17:16:43.426Z,2.40
2022-10-08T17:19:10.887Z,2.38
2022-10-08T17:21:38.475Z,2.70
2022-10-08T17:24:05.816Z,2.50
2022-10-08T17:26:32.603Z,2.20
2022-10-08T17:29:04.546Z,2.33
2022-10-08T17:31:31.821Z,2.00
2022-10-08T17:33:59.743Z,2.13
2022-10-08T17:36:29.186Z,2.20
2022-10-08T17:38:59.516Z,2.20
2022-10-08T17:41:31.409Z,2.60
2022-10-08T17:44:00.970Z,3.00
2022-10-08T17:46:36.353Z,2.65
2022-10-08T17:49:03.739Z,3.38
2022-10-08T17:51:30.874Z,3.05
2022-10-08T17:54:00.457Z,2.88
2022-10-08T17:56:28.041Z,2.63
2022-10-08T17:58:54.826Z,2.80
2022-10-08T18:01:27.381Z,2.58
2022-10-08T18:04:02.756Z,2.90
2022-10-08T18:06:32.913Z,2.47
2022-10-08T18:09:05.324Z,2.45
2022-10-08T18:11:34.221Z,2.53
2022-10-08T18:14:02.644Z,2.50
2022-10-08T18:16:29.353Z,2.10
2022-10-08T18:18:56.213Z,2.92
2022-10-08T18:21:23.113Z,2.78
2022-10-08T18:23:50.154Z,2.88
2022-10-08T18:26:33.937Z,2.80
2022-10-08T18:29:09.882Z,3.00
2022-10-08T18:31:38.431Z,2.80
2022-10-08T18:34:08.659Z,2.50
2022-10-08T18:36:37.866Z,2.33
2022-10-08T18:39:16.791Z,2.88
2022-10-08T18:41:46.401Z,2.83
2022-10-08T18:44:16.377Z,2.97
2022-10-08T18:46:46.183Z,2.40
2022-10-08T18:49:15.585Z,3.15
2022-10-08T18:51:42.700Z,3.72
2022-10-08T18:54:10.539Z,3.17
2022-10-08T18:56:39.415Z,3.00
2022-10-08T18:59:08.485Z,3.20
2022-10-08T19:01:38.326Z,3.15
2022-10-08T19:04:07.437Z,2.63
2022-10-08T19:06:37.551Z,2.80
2022-10-08T19:09:05.274Z,2.83
2022-10-08T19:11:37.685Z,2.80
2022-10-08T19:14:10.159Z,2.80
2022-10-08T19:16:38.100Z,2.90
2022-10-08T19:19:12.801Z,2.90
2022-10-08T19:21:39.469Z,3.20
2022-10-08T19:24:08.126Z,3.10
2022-10-08T19:26:34.918Z,3.55
2022-10-08T19:29:01.625Z,3.30
2022-10-08T19:31:31.187Z,3.17
2022-10-08T19:34:04.785Z,3.13
2022-10-08T19:36:34.625Z,2.93
2022-10-08T19:39:04.884Z,3.03
2022-10-08T19:41:32.335Z,3.40
2022-10-08T19:44:00.026Z,3.22
2022-10-08T19:46:27.489Z,3.03
2022-10-08T19:48:56.911Z,3.33
2022-10-08T19:51:24.612Z,2.67
2022-10-08T19:53:51.548Z,3.10
2022-10-08T19:56:19.700Z,3.28
2022-10-08T19:58:48.821Z,3.35
2022-10-08T20:01:24.580Z,3.63
2022-10-08T20:03:56.015Z,3.13
2022-10-08T20:06:25.228Z,3.08
2022-10-08T20:08:57.272Z,3.30
2022-10-08T20:11:24.535Z,3.30
2022-10-08T20:13:52.250Z,3.00
2022-10-08T20:16:21.843Z,3.40
2022-10-08T20:18:51.997Z,3.13
2022-10-08T20:21:19.873Z,2.50
2022-10-08T20:23:47.278Z,2.90
2022-10-08T20:26:21.251Z,2.92
2022-10-08T20:28:50.672Z,3.33
2022-10-08T20:31:20.526Z,2.90
2022-10-08T20:33:48.252Z,3.22
2022-10-08T20:36:17.031Z,3.05
2022-10-08T20:38:44.016Z,3.20
2022-10-08T20:41:11.128Z,3.45
2022-10-08T20:43:39.109Z,2.85
2022-10-08T20:46:11.636Z,2.60
2022-10-08T20:48:42.160Z,3.10
2022-10-08T20:51:17.791Z,2.90
2022-10-08T20:53:53.541Z,3.63
2022-10-08T20:56:21.911Z,3.72
2022-10-08T20:58:49.085Z,3.65
2022-10-08T21:01:25.246Z,3.60
2022-10-08T21:03:52.900Z,3.33
2022-10-08T21:06:22.570Z,3.90
2022-10-08T21:08:51.549Z,3.60
2022-10-08T21:11:20.865Z,3.40
2022-10-08T21:13:48.271Z,3.20
2022-10-08T21:16:27.450Z,2.80
2022-10-08T21:18:56.443Z,3.00
2022-10-08T21:21:23.941Z,3.28
2022-10-08T21:23:50.852Z,2.95
2022-10-08T21:26:26.920Z,3.05
2022-10-08T21:28:56.655Z,3.35
2022-10-08T21:31:24.294Z,3.42
2022-10-08T21:33:52.805Z,3.03
2022-10-08T21:36:24.418Z,3.40
2022-10-08T21:38:51.200Z,3.55
2022-10-08T21:41:19.328Z,3.60
2022-10-08T21:43:50.998Z,2.85
2022-10-08T21:46:20.697Z,3.50
2022-10-08T21:48:48.571Z,3.80
2022-10-08T21:51:18.085Z,3.60
2022-10-08T21:53:46.924Z,3.63
2022-10-08T21:56:16.149Z,3.83
2022-10-08T21:58:45.505Z,3.90
2022-10-08T22:01:21.820Z,3.70
2022-10-08T22:03:48.988Z,4.00
2022-10-08T22:06:15.805Z,4.50
2022-10-08T22:08:42.512Z,4.70
2022-10-08T22:11:09.225Z,4.45
2022-10-08T22:13:35.918Z,5.40
2022-10-08T22:16:04.942Z,5.65
2022-10-08T22:18:33.266Z,5.50
2022-10-08T22:21:08.977Z,4.90
2022-10-08T22:23:36.130Z,4.63
2022-10-08T22:26:06.380Z,4.70
2022-10-08T22:28:33.757Z,4.93
2022-10-08T22:31:22.698Z,4.97
2022-10-08T22:33:49.823Z,5.18
2022-10-08T22:36:22.796Z,4.88
2022-10-08T22:38:50.148Z,4.40
2022-10-08T22:41:22.354Z,4.82
2022-10-08T22:43:49.763Z,5.85
2022-10-08T22:46:20.056Z,4.88
2022-10-08T22:48:47.528Z,5.03
2022-10-08T22:51:17.019Z,5.07
2022-10-08T22:53:44.348Z,5.30
2022-10-08T22:56:20.225Z,4.63
2022-10-08T22:58:48.010Z,4.75
2022-10-08T23:01:25.495Z,5.05
2022-10-08T23:03:53.357Z,5.28
2022-10-08T23:06:32.489Z,4.43
2022-10-08T23:09:07.516Z,4.60
2022-10-08T23:11:34.745Z,4.85
2022-10-08T23:14:02.267Z,4.90
2022-10-08T23:16:31.361Z,5.20
2022-10-08T23:19:00.667Z,5.47
2022-10-08T23:21:28.278Z,5.03
2022-10-08T23:23:55.757Z,4.47
2022-10-08T23:26:23.489Z,3.92
2022-10-08T23:28:52.573Z,4.22
2022-10-08T23:31:30.448Z,4.25
2022-10-08T23:33:58.024Z,4.45
2022-10-08T23:36:27.799Z,4.50
2022-10-08T23:38:56.564Z,4.65
2022-10-08T23:41:24.256Z,4.70
2022-10-08T23:43:52.484Z,4.90
2022-10-08T23:46:21.789Z,5.35
2022-10-08T23:48:49.372Z,4.85
2022-10-08T23:51:17.064Z,4.35
2022-10-08T23:53:44.803Z,4.38
2022-10-08T23:56:12.634Z,4.68
2022-10-08T23:58:39.637Z,4.50
